sensor_id;sensor_type;location;lat;lon;timestamp;temperature;humidity
39503;DHT22;26970;49.900;10.774;2023-02-28T00:05:21;-2.80;99.90
39503;DHT22;26970;49.900;10.774;2023-02-28T00:07:48;-2.90;99.90
39503;DHT22;26970;49.900;10.774;2023-02-28T00:10:17;-2.90;99.90
39503;DHT22;26970;49.900;10.774;2023-02-28T00:15:11;-2.90;99.90
39503;DHT22;26970;49.900;10.774;2023-02-28T00:20:04;-3.10;99.90
39503;DHT22;26970;49.900;10.774;2023-02-28T00:22:33;-3.00;99.90
39503;DHT22;26970;49.900;10.774;2023-02-28T00:32:17;-2.90;99.90
39503;DHT22;26970;49.900;10.774;2023-02-28T00:34:44;-3.00;99.90
39503;DHT22;26970;49.900;10.774;2023-02-28T00:37:11;-3.00;99.90
39503;DHT22;26970;49.900;10.774;2023-02-28T00:39:38;-3.10;99.90
39503;DHT22;26970;49.900;10.774;2023-02-28T00:44:30;-3.00;99.90
39503;DHT22;26970;49.900;10.774;2023-02-28T00:46:57;-3.20;99.90
39503;DHT22;26970;49.900;10.774;2023-02-28T00:49:24;-3.10;99.90
39503;DHT22;26970;49.900;10.774;2023-02-28T00:51:49;-3.10;99.90
39503;DHT22;26970;49.900;10.774;2023-02-28T00:54:16;-3.20;99.90
39503;DHT22;26970;49.900;10.774;2023-02-28T01:01:33;-3.40;99.90
39503;DHT22;26970;49.900;10.774;2023-02-28T01:03:59;-3.20;99.90
39503;DHT22;26970;49.900;10.774;2023-02-28T01:06:24;-3.40;99.90
39503;DHT22;26970;49.900;10.774;2023-02-28T01:08:50;-3.30;99.90
39503;DHT22;26970;49.900;10.774;2023-02-28T01:11:16;-3.30;99.90
39503;DHT22;26970;49.900;10.774;2023-02-28T01:13:44;-3.10;99.90
39503;DHT22;26970;49.900;10.774;2023-02-28T01:16:10;-3.40;99.90
39503;DHT22;26970;49.900;10.774;2023-02-28T01:18:37;-3.40;99.90
39503;DHT22;26970;49.900;10.774;2023-02-28T01:21:07;-3.40;99.90
39503;DHT22;26970;49.900;10.774;2023-02-28T01:26:14;-3.30;99.90
39503;DHT22;26970;49.900;10.774;2023-02-28T01:28:40;-3.40;99.90
39503;DHT22;26970;49.900;10.774;2023-02-28T01:33:32;-3.40;99.90
39503;DHT22;26970;49.900;10.774;2023-02-28T01:36:09;-3.40;99.90
39503;DHT22;26970;49.900;10.774;2023-02-28T01:38:36;-3.30;99.90
39503;DHT22;26970;49.900;10.774;2023-02-28T01:43:30;-3.40;99.90
39503;DHT22;26970;49.900;10.774;2023-02-28T01:45:57;-3.40;99.90
39503;DHT22;26970;49.900;10.774;2023-02-28T01:48:27;-3.40;99.90
39503;DHT22;26970;49.900;10.774;2023-02-28T01:50:56;-3.40;99.90
39503;DHT22;26970;49.900;10.774;2023-02-28T01:53:33;-3.20;99.90
39503;DHT22;26970;49.900;10.774;2023-02-28T01:56:00;-3.30;99.90
39503;DHT22;26970;49.900;10.774;2023-02-28T01:58:26;-3.20;99.90
39503;DHT22;26970;49.900;10.774;2023-02-28T02:00:52;-3.30;99.90
39503;DHT22;26970;49.900;10.774;2023-02-28T02:03:20;-3.30;99.90
39503;DHT22;26970;49.900;10.774;2023-02-28T02:05:46;-3.40;99.90
39503;DHT22;26970;49.900;10.774;2023-02-28T02:08:17;-3.30;99.90
39503;DHT22;26970;49.900;10.774;2023-02-28T02:10:46;-3.30;99.90
39503;DHT22;26970;49.900;10.774;2023-02-28T02:16:49;-3.20;99.90
39503;DHT22;26970;49.900;10.774;2023-02-28T02:22:29;-3.20;99.90
39503;DHT22;26970;49.900;10.774;2023-02-28T02:27:59;-3.30;99.90
39503;DHT22;26970;49.900;10.774;2023-02-28T02:36:28;-3.30;99.90
39503;DHT22;26970;49.900;10.774;2023-02-28T02:39:12;-3.40;99.90
39503;DHT22;26970;49.900;10.774;2023-02-28T02:41:52;-3.40;99.90
39503;DHT22;26970;49.900;10.774;2023-02-28T02:44:23;-3.50;99.90
39503;DHT22;26970;49.900;10.774;2023-02-28T02:46:53;-3.50;99.90
39503;DHT22;26970;49.900;10.774;2023-02-28T02:49:24;-3.50;99.90
39503;DHT22;26970;49.900;10.774;2023-02-28T02:51:52;-3.60;99.90
39503;DHT22;26970;49.900;10.774;2023-02-28T02:54:22;-2.80;99.90
39503;DHT22;26970;49.900;10.774;2023-02-28T02:56:50;-3.60;99.90
39503;DHT22;26970;49.900;10.774;2023-02-28T02:59:19;-3.70;99.90
39503;DHT22;26970;49.900;10.774;2023-02-28T03:01:52;-3.50;99.90
39503;DHT22;26970;49.900;10.774;2023-02-28T03:04:21;-3.50;99.90
39503;DHT22;26970;49.900;10.774;2023-02-28T03:09:13;-3.70;99.90
39503;DHT22;26970;49.900;10.774;2023-02-28T03:11:40;-3.70;99.90
39503;DHT22;26970;49.900;10.774;2023-02-28T03:20:02;-3.30;99.90
39503;DHT22;26970;49.900;10.774;2023-02-28T03:28:27;-3.50;99.90
39503;DHT22;26970;49.900;10.774;2023-02-28T03:31:03;-3.50;99.90
39503;DHT22;26970;49.900;10.774;2023-02-28T03:33:42;-3.50;99.90
39503;DHT22;26970;49.900;10.774;2023-02-28T03:36:17;-3.60;99.90
39503;DHT22;26970;49.900;10.774;2023-02-28T03:38:59;-3.20;99.90
39503;DHT22;26970;49.900;10.774;2023-02-28T03:41:48;-3.60;99.90
39503;DHT22;26970;49.900;10.774;2023-02-28T03:44:21;-3.60;99.90
39503;DHT22;26970;49.900;10.774;2023-02-28T03:47:07;-3.40;99.90
39503;DHT22;26970;49.900;10.774;2023-02-28T03:50:04;-3.70;99.90
39503;DHT22;26970;49.900;10.774;2023-02-28T03:52:35;-3.70;99.90
39503;DHT22;26970;49.900;10.774;2023-02-28T03:55:06;-3.60;99.90
39503;DHT22;26970;49.900;10.774;2023-02-28T04:00:10;-3.70;99.90
39503;DHT22;26970;49.900;10.774;2023-02-28T04:02:37;-3.70;99.90
39503;DHT22;26970;49.900;10.774;2023-02-28T04:05:03;-3.70;99.90
39503;DHT22;26970;49.900;10.774;2023-02-28T04:07:32;-3.70;99.90
39503;DHT22;26970;49.900;10.774;2023-02-28T04:12:24;-3.60;99.90
39503;DHT22;26970;49.900;10.774;2023-02-28T04:14:50;-3.60;99.90
39503;DHT22;26970;49.900;10.774;2023-02-28T04:17:16;-3.00;99.90
39503;DHT22;26970;49.900;10.774;2023-02-28T04:19:43;-3.70;99.90
39503;DHT22;26970;49.900;10.774;2023-02-28T04:22:09;-3.50;99.90
39503;DHT22;26970;49.900;10.774;2023-02-28T04:24:35;-3.60;99.90
39503;DHT22;26970;49.900;10.774;2023-02-28T04:27:01;-3.60;99.90
39503;DHT22;26970;49.900;10.774;2023-02-28T04:29:31;-3.70;99.90
39503;DHT22;26970;49.900;10.774;2023-02-28T04:32:00;-3.60;99.90
39503;DHT22;26970;49.900;10.774;2023-02-28T04:34:27;-2.20;99.90
39503;DHT22;26970;49.900;10.774;2023-02-28T04:36:53;-3.60;99.90
39503;DHT22;26970;49.900;10.774;2023-02-28T04:39:23;-3.60;99.90
39503;DHT22;26970;49.900;10.774;2023-02-28T04:41:50;-3.60;99.90
39503;DHT22;26970;49.900;10.774;2023-02-28T04:46:42;-3.60;99.90
39503;DHT22;26970;49.900;10.774;2023-02-28T04:49:09;-3.60;99.90
39503;DHT22;26970;49.900;10.774;2023-02-28T04:54:01;-3.70;99.90
39503;DHT22;26970;49.900;10.774;2023-02-28T04:56:27;-3.80;99.90
39503;DHT22;26970;49.900;10.774;2023-02-28T05:01:28;-3.80;99.90
39503;DHT22;26970;49.900;10.774;2023-02-28T05:03:57;-3.20;99.90
39503;DHT22;26970;49.900;10.774;2023-02-28T05:06:25;-3.70;99.90
39503;DHT22;26970;49.900;10.774;2023-02-28T05:08:52;-3.80;99.90
39503;DHT22;26970;49.900;10.774;2023-02-28T05:13:49;-3.60;99.90
39503;DHT22;26970;49.900;10.774;2023-02-28T05:16:15;-3.20;99.90
39503;DHT22;26970;49.900;10.774;2023-02-28T05:18:40;-3.90;99.90
39503;DHT22;26970;49.900;10.774;2023-02-28T05:21:12;-3.60;99.90
39503;DHT22;26970;49.900;10.774;2023-02-28T05:26:14;-3.60;99.90
39503;DHT22;26970;49.900;10.774;2023-02-28T05:28:40;-3.50;99.90
39503;DHT22;26970;49.900;10.774;2023-02-28T05:35:58;-3.20;99.90
39503;DHT22;26970;49.900;10.774;2023-02-28T05:43:15;-3.40;99.90
39503;DHT22;26970;49.900;10.774;2023-02-28T05:48:07;-3.40;99.90
39503;DHT22;26970;49.900;10.774;2023-02-28T06:00:17;-3.20;99.90
39503;DHT22;26970;49.900;10.774;2023-02-28T06:05:14;-3.30;99.90
39503;DHT22;26970;49.900;10.774;2023-02-28T06:07:40;-3.20;99.90
39503;DHT22;26970;49.900;10.774;2023-02-28T06:10:06;-3.30;99.90
39503;DHT22;26970;49.900;10.774;2023-02-28T06:12:32;-3.30;99.90
39503;DHT22;26970;49.900;10.774;2023-02-28T06:14:57;-3.40;99.90
39503;DHT22;26970;49.900;10.774;2023-02-28T06:22:15;-3.30;99.90
39503;DHT22;26970;49.900;10.774;2023-02-28T06:27:06;-3.10;99.90
39503;DHT22;26970;49.900;10.774;2023-02-28T06:29:32;-3.00;99.90
39503;DHT22;26970;49.900;10.774;2023-02-28T06:36:51;-2.80;99.90
39503;DHT22;26970;49.900;10.774;2023-02-28T06:44:16;-2.70;99.90
39503;DHT22;26970;49.900;10.774;2023-02-28T06:46:43;-2.90;99.90
39503;DHT22;26970;49.900;10.774;2023-02-28T06:49:10;-2.70;99.90
39503;DHT22;26970;49.900;10.774;2023-02-28T06:51:38;-2.00;99.90
39503;DHT22;26970;49.900;10.774;2023-02-28T06:54:05;-2.50;99.90
39503;DHT22;26970;49.900;10.774;2023-02-28T06:56:34;-2.50;99.90
39503;DHT22;26970;49.900;10.774;2023-02-28T06:59:00;-2.30;99.90
39503;DHT22;26970;49.900;10.774;2023-02-28T07:03:53;-2.20;99.90
39503;DHT22;26970;49.900;10.774;2023-02-28T07:06:20;-2.20;99.90
39503;DHT22;26970;49.900;10.774;2023-02-28T07:11:13;-2.00;99.90
39503;DHT22;26970;49.900;10.774;2023-02-28T07:16:07;-1.80;99.90
39503;DHT22;26970;49.900;10.774;2023-02-28T07:18:34;-1.80;99.90
39503;DHT22;26970;49.900;10.774;2023-02-28T07:21:02;-1.80;99.90
39503;DHT22;26970;49.900;10.774;2023-02-28T07:23:28;-1.60;99.90
39503;DHT22;26970;49.900;10.774;2023-02-28T07:25:54;-1.70;99.90
39503;DHT22;26970;49.900;10.774;2023-02-28T07:28:19;-1.60;99.90
39503;DHT22;26970;49.900;10.774;2023-02-28T07:30:45;-1.60;99.90
39503;DHT22;26970;49.900;10.774;2023-02-28T07:35:36;-0.20;99.90
39503;DHT22;26970;49.900;10.774;2023-02-28T07:38:02;-1.60;99.90
39503;DHT22;26970;49.900;10.774;2023-02-28T07:40:28;-1.60;99.90
39503;DHT22;26970;49.900;10.774;2023-02-28T07:42:54;-1.50;99.90
39503;DHT22;26970;49.900;10.774;2023-02-28T07:45:19;-1.50;99.90
39503;DHT22;26970;49.900;10.774;2023-02-28T07:47:45;-1.40;99.90
39503;DHT22;26970;49.900;10.774;2023-02-28T07:50:13;-1.30;99.90
39503;DHT22;26970;49.900;10.774;2023-02-28T07:52:40;-1.50;99.90
39503;DHT22;26970;49.900;10.774;2023-02-28T07:55:07;-1.20;99.90
39503;DHT22;26970;49.900;10.774;2023-02-28T07:57:33;-1.10;99.90
39503;DHT22;26970;49.900;10.774;2023-02-28T07:59:59;1.00;99.90
39503;DHT22;26970;49.900;10.774;2023-02-28T08:02:24;-0.10;99.90
39503;DHT22;26970;49.900;10.774;2023-02-28T08:04:50;-0.50;99.90
39503;DHT22;26970;49.900;10.774;2023-02-28T08:07:17;0.40;99.90
39503;DHT22;26970;49.900;10.774;2023-02-28T08:09:44;-1.00;99.90
39503;DHT22;26970;49.900;10.774;2023-02-28T08:12:10;-0.90;99.90
39503;DHT22;26970;49.900;10.774;2023-02-28T08:14:36;-0.90;99.90
39503;DHT22;26970;49.900;10.774;2023-02-28T08:19:29;-0.80;99.90
39503;DHT22;26970;49.900;10.774;2023-02-28T08:26:46;-0.80;99.90
39503;DHT22;26970;49.900;10.774;2023-02-28T08:29:12;-0.80;99.90
39503;DHT22;26970;49.900;10.774;2023-02-28T08:34:11;-0.50;99.90
39503;DHT22;26970;49.900;10.774;2023-02-28T08:39:04;-0.30;99.90
39503;DHT22;26970;49.900;10.774;2023-02-28T08:41:30;-0.20;99.90
39503;DHT22;26970;49.900;10.774;2023-02-28T08:43:56;-0.50;99.90
39503;DHT22;26970;49.900;10.774;2023-02-28T08:48:52;-0.10;99.90
39503;DHT22;26970;49.900;10.774;2023-02-28T08:53:47;-0.20;99.90
39503;DHT22;26970;49.900;10.774;2023-02-28T08:56:15;-0.20;99.90
39503;DHT22;26970;49.900;10.774;2023-02-28T09:01:10;0.00;99.90
39503;DHT22;26970;49.900;10.774;2023-02-28T09:03:37;-0.10;99.90
39503;DHT22;26970;49.900;10.774;2023-02-28T09:08:30;-0.10;99.90
39503;DHT22;26970;49.900;10.774;2023-02-28T09:13:24;0.00;99.90
39503;DHT22;26970;49.900;10.774;2023-02-28T09:20:43;0.10;99.90
39503;DHT22;26970;49.900;10.774;2023-02-28T09:23:10;0.10;99.90
39503;DHT22;26970;49.900;10.774;2023-02-28T09:25:37;0.20;99.90
39503;DHT22;26970;49.900;10.774;2023-02-28T09:30:30;0.00;99.90
39503;DHT22;26970;49.900;10.774;2023-02-28T09:35:23;0.00;99.90
39503;DHT22;26970;49.900;10.774;2023-02-28T09:37:50;0.20;99.90
39503;DHT22;26970;49.900;10.774;2023-02-28T09:42:46;0.20;99.90
39503;DHT22;26970;49.900;10.774;2023-02-28T09:45:35;2.70;99.90
39503;DHT22;26970;49.900;10.774;2023-02-28T09:48:18;0.20;99.90
39503;DHT22;26970;49.900;10.774;2023-02-28T09:50:49;0.20;99.90
39503;DHT22;26970;49.900;10.774;2023-02-28T09:53:26;0.10;99.90
39503;DHT22;26970;49.900;10.774;2023-02-28T09:56:19;0.20;99.90
39503;DHT22;26970;49.900;10.774;2023-02-28T09:59:02;0.20;99.90
39503;DHT22;26970;49.900;10.774;2023-02-28T10:01:57;0.20;99.90
39503;DHT22;26970;49.900;10.774;2023-02-28T10:04:55;-0.20;99.90
39503;DHT22;26970;49.900;10.774;2023-02-28T10:10:03;0.30;99.90
39503;DHT22;26970;49.900;10.774;2023-02-28T10:12:30;0.40;99.90
39503;DHT22;26970;49.900;10.774;2023-02-28T10:14:59;0.40;99.90
39503;DHT22;26970;49.900;10.774;2023-02-28T10:17:29;0.40;99.90
39503;DHT22;26970;49.900;10.774;2023-02-28T10:20:02;0.60;99.90
39503;DHT22;26970;49.900;10.774;2023-02-28T10:22:51;3.00;99.90
39503;DHT22;26970;49.900;10.774;2023-02-28T10:25:21;0.50;99.90
39503;DHT22;26970;49.900;10.774;2023-02-28T10:27:47;0.40;99.90
39503;DHT22;26970;49.900;10.774;2023-02-28T10:30:13;0.60;99.90
39503;DHT22;26970;49.900;10.774;2023-02-28T10:32:40;0.60;99.90
39503;DHT22;26970;49.900;10.774;2023-02-28T10:37:37;0.70;99.90
39503;DHT22;26970;49.900;10.774;2023-02-28T10:40:05;0.70;99.90
39503;DHT22;26970;49.900;10.774;2023-02-28T10:42:31;0.70;99.90
39503;DHT22;26970;49.900;10.774;2023-02-28T10:50:37;0.70;99.90
39503;DHT22;26970;49.900;10.774;2023-02-28T10:55:59;0.70;99.90
39503;DHT22;26970;49.900;10.774;2023-02-28T10:58:47;0.90;99.90
39503;DHT22;26970;49.900;10.774;2023-02-28T11:06:47;1.00;99.90
39503;DHT22;26970;49.900;10.774;2023-02-28T11:09:25;1.10;99.90
39503;DHT22;26970;49.900;10.774;2023-02-28T11:11:52;1.10;99.90
39503;DHT22;26970;49.900;10.774;2023-02-28T11:14:24;2.00;99.90
39503;DHT22;26970;49.900;10.774;2023-02-28T11:16:51;1.10;99.90
39503;DHT22;26970;49.900;10.774;2023-02-28T11:19:25;-0.20;99.90
39503;DHT22;26970;49.900;10.774;2023-02-28T11:21:59;2.60;99.90
39503;DHT22;26970;49.900;10.774;2023-02-28T11:24:33;3.20;99.90
39503;DHT22;26970;49.900;10.774;2023-02-28T11:27:00;1.80;99.90
39503;DHT22;26970;49.900;10.774;2023-02-28T11:29:31;4.00;99.90
39503;DHT22;26970;49.900;10.774;2023-02-28T11:32:26;2.20;99.90
39503;DHT22;26970;49.900;10.774;2023-02-28T11:35:26;2.00;99.90
39503;DHT22;26970;49.900;10.774;2023-02-28T11:40:24;2.20;99.90
39503;DHT22;26970;49.900;10.774;2023-02-28T11:48:18;2.20;99.90
39503;DHT22;26970;49.900;10.774;2023-02-28T11:50:57;2.40;99.90
39503;DHT22;26970;49.900;10.774;2023-02-28T11:56:26;2.50;99.90
39503;DHT22;26970;49.900;10.774;2023-02-28T12:05:11;2.20;99.90
39503;DHT22;26970;49.900;10.774;2023-02-28T12:10:57;2.30;99.90
39503;DHT22;26970;49.900;10.774;2023-02-28T12:13:46;2.40;99.90
39503;DHT22;26970;49.900;10.774;2023-02-28T12:18:53;2.70;99.90
39503;DHT22;26970;49.900;10.774;2023-02-28T12:23:56;2.40;99.90
39503;DHT22;26970;49.900;10.774;2023-02-28T12:32:18;3.20;99.90
39503;DHT22;26970;49.900;10.774;2023-02-28T12:34:55;2.40;99.90
39503;DHT22;26970;49.900;10.774;2023-02-28T12:37:34;1.70;99.90
39503;DHT22;26970;49.900;10.774;2023-02-28T12:40:12;2.20;99.90
39503;DHT22;26970;49.900;10.774;2023-02-28T12:42:51;2.30;99.90
39503;DHT22;26970;49.900;10.774;2023-02-28T12:45:51;1.50;99.90
39503;DHT22;26970;49.900;10.774;2023-02-28T12:48:21;3.40;99.90
39503;DHT22;26970;49.900;10.774;2023-02-28T12:50:49;2.40;99.90
39503;DHT22;26970;49.900;10.774;2023-02-28T12:56:16;2.80;99.90
39503;DHT22;26970;49.900;10.774;2023-02-28T12:58:50;2.80;99.90
39503;DHT22;26970;49.900;10.774;2023-02-28T13:01:35;4.40;99.90
39503;DHT22;26970;49.900;10.774;2023-02-28T13:09:59;5.10;99.90
39503;DHT22;26970;49.900;10.774;2023-02-28T13:12:26;5.70;99.90
39503;DHT22;26970;49.900;10.774;2023-02-28T13:15:05;2.60;99.90
39503;DHT22;26970;49.900;10.774;2023-02-28T13:17:32;4.40;99.90
39503;DHT22;26970;49.900;10.774;2023-02-28T13:19:59;1.90;99.90
39503;DHT22;26970;49.900;10.774;2023-02-28T13:24:55;3.00;99.90
39503;DHT22;26970;49.900;10.774;2023-02-28T13:27:25;2.90;99.90
39503;DHT22;26970;49.900;10.774;2023-02-28T13:29:57;2.90;99.90
39503;DHT22;26970;49.900;10.774;2023-02-28T13:32:28;4.70;99.90
39503;DHT22;26970;49.900;10.774;2023-02-28T13:47:51;2.70;99.90
39503;DHT22;26970;49.900;10.774;2023-02-28T13:55:52;5.30;99.90
39503;DHT22;26970;49.900;10.774;2023-02-28T14:06:49;3.00;99.90
39503;DHT22;26970;49.900;10.774;2023-02-28T14:11:44;5.10;99.90
39503;DHT22;26970;49.900;10.774;2023-02-28T14:14:53;2.90;99.90
39503;DHT22;26970;49.900;10.774;2023-02-28T14:17:17;4.70;99.90
39503;DHT22;26970;49.900;10.774;2023-02-28T14:19:46;3.40;99.90
39503;DHT22;26970;49.900;10.774;2023-02-28T14:25:33;3.20;99.90
39503;DHT22;26970;49.900;10.774;2023-02-28T14:31:09;3.80;99.90
39503;DHT22;26970;49.900;10.774;2023-02-28T14:33:53;3.10;99.90
39503;DHT22;26970;49.900;10.774;2023-02-28T14:36:55;3.10;99.90
39503;DHT22;26970;49.900;10.774;2023-02-28T14:39:25;3.20;99.90
39503;DHT22;26970;49.900;10.774;2023-02-28T14:41:51;3.20;99.90
39503;DHT22;26970;49.900;10.774;2023-02-28T14:44:25;2.80;99.90
39503;DHT22;26970;49.900;10.774;2023-02-28T14:47:00;3.10;99.90
39503;DHT22;26970;49.900;10.774;2023-02-28T14:49:43;3.10;99.90
39503;DHT22;26970;49.900;10.774;2023-02-28T14:52:20;3.10;99.90
39503;DHT22;26970;49.900;10.774;2023-02-28T14:55:12;3.10;99.90
39503;DHT22;26970;49.900;10.774;2023-02-28T14:57:50;3.20;99.90
39503;DHT22;26970;49.900;10.774;2023-02-28T15:02:51;3.20;99.90
39503;DHT22;26970;49.900;10.774;2023-02-28T15:05:34;5.80;99.90
39503;DHT22;26970;49.900;10.774;2023-02-28T15:08:12;5.40;99.90
39503;DHT22;26970;49.900;10.774;2023-02-28T15:10:44;3.10;99.90
39503;DHT22;26970;49.900;10.774;2023-02-28T15:13:14;3.20;99.90
39503;DHT22;26970;49.900;10.774;2023-02-28T15:15:53;3.10;99.90
39503;DHT22;26970;49.900;10.774;2023-02-28T15:21:13;3.10;99.90
39503;DHT22;26970;49.900;10.774;2023-02-28T15:23:40;3.00;99.90
39503;DHT22;26970;49.900;10.774;2023-02-28T15:26:09;4.90;99.90
39503;DHT22;26970;49.900;10.774;2023-02-28T15:28:36;3.00;99.90
39503;DHT22;26970;49.900;10.774;2023-02-28T15:31:03;3.00;99.90
39503;DHT22;26970;49.900;10.774;2023-02-28T15:33:55;3.10;99.90
39503;DHT22;26970;49.900;10.774;2023-02-28T15:36:25;5.10;99.90
39503;DHT22;26970;49.900;10.774;2023-02-28T15:38:53;3.00;99.90
39503;DHT22;26970;49.900;10.774;2023-02-28T15:44:13;5.50;99.90
39503;DHT22;26970;49.900;10.774;2023-02-28T15:46:43;3.10;99.90
39503;DHT22;26970;49.900;10.774;2023-02-28T15:49:17;2.90;99.90
39503;DHT22;26970;49.900;10.774;2023-02-28T15:51:44;5.70;99.90
39503;DHT22;26970;49.900;10.774;2023-02-28T15:54:20;3.00;99.90
39503;DHT22;26970;49.900;10.774;2023-02-28T15:56:49;3.00;99.90
39503;DHT22;26970;49.900;10.774;2023-02-28T15:59:28;2.90;99.90
39503;DHT22;26970;49.900;10.774;2023-02-28T16:04:29;2.80;99.90
39503;DHT22;26970;49.900;10.774;2023-02-28T16:07:01;2.70;99.90
39503;DHT22;26970;49.900;10.774;2023-02-28T16:09:27;5.80;99.90
39503;DHT22;26970;49.900;10.774;2023-02-28T16:11:56;4.70;99.90
39503;DHT22;26970;49.900;10.774;2023-02-28T16:14:26;4.90;99.90
39503;DHT22;26970;49.900;10.774;2023-02-28T16:17:14;5.40;99.90
39503;DHT22;26970;49.900;10.774;2023-02-28T16:19:40;2.60;99.90
39503;DHT22;26970;49.900;10.774;2023-02-28T16:22:08;2.70;99.90
39503;DHT22;26970;49.900;10.774;2023-02-28T16:24:34;2.40;99.90
39503;DHT22;26970;49.900;10.774;2023-02-28T16:27:00;2.70;99.90
39503;DHT22;26970;49.900;10.774;2023-02-28T16:29:31;5.10;99.90
39503;DHT22;26970;49.900;10.774;2023-02-28T16:31:57;2.50;99.90
39503;DHT22;26970;49.900;10.774;2023-02-28T16:34:24;4.80;99.90
39503;DHT22;26970;49.900;10.774;2023-02-28T16:36:50;1.50;99.90
39503;DHT22;26970;49.900;10.774;2023-02-28T16:39:15;2.90;99.90
39503;DHT22;26970;49.900;10.774;2023-02-28T16:41:45;4.70;99.90
39503;DHT22;26970;49.900;10.774;2023-02-28T16:44:35;2.80;99.90
39503;DHT22;26970;49.900;10.774;2023-02-28T16:47:03;3.80;99.90
39503;DHT22;26970;49.900;10.774;2023-02-28T16:49:29;2.20;99.90
39503;DHT22;26970;49.900;10.774;2023-02-28T16:51:55;4.40;99.90
39503;DHT22;26970;49.900;10.774;2023-02-28T16:54:20;2.80;99.90
39503;DHT22;26970;49.900;10.774;2023-02-28T16:56:47;2.10;99.90
39503;DHT22;26970;49.900;10.774;2023-02-28T16:59:17;2.20;99.90
39503;DHT22;26970;49.900;10.774;2023-02-28T17:01:43;1.50;99.90
39503;DHT22;26970;49.900;10.774;2023-02-28T17:04:10;1.60;99.90
39503;DHT22;26970;49.900;10.774;2023-02-28T17:06:36;3.60;99.90
39503;DHT22;26970;49.900;10.774;2023-02-28T17:09:02;4.20;99.90
39503;DHT22;26970;49.900;10.774;2023-02-28T17:11:28;2.00;99.90
39503;DHT22;26970;49.900;10.774;2023-02-28T17:13:54;3.10;99.90
39503;DHT22;26970;49.900;10.774;2023-02-28T17:16:27;3.00;99.90
39503;DHT22;26970;49.900;10.774;2023-02-28T17:18:56;1.80;99.90
39503;DHT22;26970;49.900;10.774;2023-02-28T17:21:22;3.70;99.90
39503;DHT22;26970;49.900;10.774;2023-02-28T17:23:48;4.10;99.90
39503;DHT22;26970;49.900;10.774;2023-02-28T17:26:15;3.00;99.90
39503;DHT22;26970;49.900;10.774;2023-02-28T17:28:43;1.10;99.90
39503;DHT22;26970;49.900;10.774;2023-02-28T17:31:09;0.60;99.90
39503;DHT22;26970;49.900;10.774;2023-02-28T17:33:35;2.80;99.90
39503;DHT22;26970;49.900;10.774;2023-02-28T17:36:01;3.40;99.90
39503;DHT22;26970;49.900;10.774;2023-02-28T17:38:27;2.50;99.90
39503;DHT22;26970;49.900;10.774;2023-02-28T17:40:52;3.30;99.90
39503;DHT22;26970;49.900;10.774;2023-02-28T17:43:23;3.70;99.90
39503;DHT22;26970;49.900;10.774;2023-02-28T17:45:49;3.80;99.90
39503;DHT22;26970;49.900;10.774;2023-02-28T17:48:14;2.80;99.90
39503;DHT22;26970;49.900;10.774;2023-02-28T17:50:40;1.20;99.90
39503;DHT22;26970;49.900;10.774;2023-02-28T17:53:06;2.90;99.90
39503;DHT22;26970;49.900;10.774;2023-02-28T17:55:32;2.10;99.90
39503;DHT22;26970;49.900;10.774;2023-02-28T17:57:59;2.50;99.90
39503;DHT22;26970;49.900;10.774;2023-02-28T18:00:25;1.70;99.90
39503;DHT22;26970;49.900;10.774;2023-02-28T18:02:51;2.90;99.90
39503;DHT22;26970;49.900;10.774;2023-02-28T18:05:17;1.60;99.90
39503;DHT22;26970;49.900;10.774;2023-02-28T18:07:43;0.20;99.90
39503;DHT22;26970;49.900;10.774;2023-02-28T18:12:47;2.20;99.90
39503;DHT22;26970;49.900;10.774;2023-02-28T18:15:13;3.30;99.90
39503;DHT22;26970;49.900;10.774;2023-02-28T18:17:39;2.60;99.90
39503;DHT22;26970;49.900;10.774;2023-02-28T18:20:05;2.30;99.90
39503;DHT22;26970;49.900;10.774;2023-02-28T18:22:31;0.80;99.90
39503;DHT22;26970;49.900;10.774;2023-02-28T18:24:57;1.90;99.90
39503;DHT22;26970;49.900;10.774;2023-02-28T18:27:22;2.20;99.90
39503;DHT22;26970;49.900;10.774;2023-02-28T18:29:48;2.10;99.90
39503;DHT22;26970;49.900;10.774;2023-02-28T18:32:15;2.20;99.90
39503;DHT22;26970;49.900;10.774;2023-02-28T18:34:41;0.20;99.90
39503;DHT22;26970;49.900;10.774;2023-02-28T18:37:06;2.10;99.90
39503;DHT22;26970;49.900;10.774;2023-02-28T18:39:32;1.70;99.90
39503;DHT22;26970;49.900;10.774;2023-02-28T18:41:58;2.90;99.90
39503;DHT22;26970;49.900;10.774;2023-02-28T18:44:23;1.00;99.90
39503;DHT22;26970;49.900;10.774;2023-02-28T18:46:49;0.10;99.90
39503;DHT22;26970;49.900;10.774;2023-02-28T18:49:16;1.80;99.90
39503;DHT22;26970;49.900;10.774;2023-02-28T18:51:41;2.20;99.90
39503;DHT22;26970;49.900;10.774;2023-02-28T18:54:10;0.10;99.90
39503;DHT22;26970;49.900;10.774;2023-02-28T18:56:36;1.60;99.90
39503;DHT22;26970;49.900;10.774;2023-02-28T18:59:02;1.20;99.90
39503;DHT22;26970;49.900;10.774;2023-02-28T19:01:29;2.10;99.90
39503;DHT22;26970;49.900;10.774;2023-02-28T19:03:57;1.60;99.90
39503;DHT22;26970;49.900;10.774;2023-02-28T19:06:25;1.90;99.90
39503;DHT22;26970;49.900;10.774;2023-02-28T19:08:59;2.10;99.90
39503;DHT22;26970;49.900;10.774;2023-02-28T19:11:31;1.80;99.90
39503;DHT22;26970;49.900;10.774;2023-02-28T19:13:57;-0.70;99.90
39503;DHT22;26970;49.900;10.774;2023-02-28T19:16:23;2.10;99.90
39503;DHT22;26970;49.900;10.774;2023-02-28T19:18:49;2.10;99.90
39503;DHT22;26970;49.900;10.774;2023-02-28T19:21:21;0.90;99.90
39503;DHT22;26970;49.900;10.774;2023-02-28T19:23:47;0.10;99.90
39503;DHT22;26970;49.900;10.774;2023-02-28T19:26:16;-0.90;99.90
39503;DHT22;26970;49.900;10.774;2023-02-28T19:28:48;-0.10;99.90
39503;DHT22;26970;49.900;10.774;2023-02-28T19:31:20;0.70;99.90
39503;DHT22;26970;49.900;10.774;2023-02-28T19:33:46;0.40;99.90
39503;DHT22;26970;49.900;10.774;2023-02-28T19:36:13;1.30;99.90
39503;DHT22;26970;49.900;10.774;2023-02-28T19:38:39;1.70;99.90
39503;DHT22;26970;49.900;10.774;2023-02-28T19:41:08;1.50;99.90
39503;DHT22;26970;49.900;10.774;2023-02-28T19:43:34;-1.10;99.90
39503;DHT22;26970;49.900;10.774;2023-02-28T19:46:00;-1.10;99.90
39503;DHT22;26970;49.900;10.774;2023-02-28T19:48:26;1.40;99.90
39503;DHT22;26970;49.900;10.774;2023-02-28T19:50:56;0.80;99.90
39503;DHT22;26970;49.900;10.774;2023-02-28T19:53:22;1.70;99.90
39503;DHT22;26970;49.900;10.774;2023-02-28T19:55:49;0.10;99.90
39503;DHT22;26970;49.900;10.774;2023-02-28T19:58:16;2.00;99.90
39503;DHT22;26970;49.900;10.774;2023-02-28T20:00:41;0.70;99.90
39503;DHT22;26970;49.900;10.774;2023-02-28T20:03:07;2.20;99.90
39503;DHT22;26970;49.900;10.774;2023-02-28T20:05:33;-0.40;99.90
39503;DHT22;26970;49.900;10.774;2023-02-28T20:08:01;-0.50;99.90
39503;DHT22;26970;49.900;10.774;2023-02-28T20:10:27;1.30;99.90
39503;DHT22;26970;49.900;10.774;2023-02-28T20:12:53;-0.10;99.90
39503;DHT22;26970;49.900;10.774;2023-02-28T20:15:18;-1.20;99.90
39503;DHT22;26970;49.900;10.774;2023-02-28T20:17:44;1.30;99.90